Time;durP1;ratioP1;P1;durP2;ratioP2;P2;SDS_P1;SDS_P2;PMS_P1;PMS_P2;Temp;Humidity;BMP_temperature;BMP_pressure;BME280_temperature;BME280_humidity;BME280_pressure;Samples;Min_cycle;Max_cycle;Signal;HPM_P1;HPM_P2
2022/08/03 00:01:45;;;;;;;4.58;3.33;;;;;;;17.36;78.19;101052.96;1655009;86;25955;-61
2022/08/03 00:04:11;;;;;;;10.32;3.00;;;;;;;17.33;78.29;101059.26;1654978;86;25820;-61
2022/08/03 00:06:39;;;;;;;4.12;3.55;;;;;;;17.31;78.26;101053.97;1654962;86;28600;-61
2022/08/03 00:09:07;;;;;;;4.05;3.10;;;;;;;17.29;78.55;101056.53;1679606;85;25697;-61
2022/08/03 00:11:35;;;;;;;7.35;4.15;;;;;;;17.29;78.37;101051.09;1680611;85;25902;-61
2022/08/03 00:14:06;;;;;;;6.60;3.70;;;;;;;17.30;77.87;101047.36;1680464;85;26611;-61
2022/08/03 00:16:33;;;;;;;11.45;2.92;;;;;;;17.31;77.57;101049.06;1717803;83;25701;-61
2022/08/03 00:19:02;;;;;;;9.15;3.30;;;;;;;17.32;77.19;101049.40;1717599;83;27499;-61
2022/08/03 00:21:28;;;;;;;8.33;2.70;;;;;;;17.32;77.01;101043.96;1717949;83;25838;-61
2022/08/03 00:23:56;;;;;;;4.53;2.67;;;;;;;17.39;77.01;101043.59;1695228;83;25751;-61
2022/08/03 00:26:23;;;;;;;3.47;2.08;;;;;;;17.45;77.06;101036.09;1665334;86;26511;-61
2022/08/03 00:28:50;;;;;;;2.70;2.45;;;;;;;17.49;77.13;101035.22;1665266;85;25754;-61
2022/08/03 00:31:17;;;;;;;4.92;2.27;;;;;;;17.47;77.02;101044.93;1665343;86;27515;-61
2022/08/03 00:33:44;;;;;;;4.40;2.83;;;;;;;17.50;76.88;101036.92;1665213;86;25491;-61
2022/08/03 00:36:11;;;;;;;6.85;2.75;;;;;;;17.46;76.44;101040.51;1665395;85;25776;-61
2022/08/03 00:38:38;;;;;;;5.70;2.80;;;;;;;17.43;76.43;101042.73;1665461;86;26551;-61
2022/08/03 00:41:05;;;;;;;5.70;2.92;;;;;;;17.35;76.60;101051.75;1665284;86;25731;-61
2022/08/03 00:43:32;;;;;;;3.87;2.60;;;;;;;17.25;77.18;101047.88;1665409;86;28540;-60
2022/08/03 00:45:59;;;;;;;5.10;3.05;;;;;;;17.17;77.61;101050.09;1674599;83;25769;-61
2022/08/03 00:48:26;;;;;;;7.00;3.08;;;;;;;17.12;77.70;101051.14;1693409;84;25724;-61
2022/08/03 00:50:53;;;;;;;7.75;2.77;;;;;;;17.11;77.69;101052.67;1693496;84;25919;-61
2022/08/03 00:53:21;;;;;;;4.37;2.70;;;;;;;17.09;77.55;101059.63;1693405;84;25797;-61
2022/08/03 00:55:47;;;;;;;8.93;2.80;;;;;;;17.08;77.60;101053.84;1693352;84;27505;-61
2022/08/03 00:58:15;;;;;;;5.08;2.42;;;;;;;17.07;77.38;101056.25;1693612;84;25788;-61
2022/08/03 01:00:42;;;;;;;5.35;2.52;;;;;;;17.06;77.59;101062.70;1693430;84;25788;-61
2022/08/03 01:03:11;;;;;;;7.67;2.67;;;;;;;17.08;77.22;101055.73;1693356;84;26007;-61
2022/08/03 01:05:52;;;;;;;7.90;2.45;;;;;;;17.08;77.00;101057.92;1693515;84;25784;-60
2022/08/03 01:08:45;;;;;;;7.37;2.70;;;;;;;17.10;76.76;101053.17;1706874;83;27489;-61
2022/08/03 01:11:29;;;;;;;4.63;2.50;;;;;;;17.11;76.59;101056.23;1717494;82;25527;-62
2022/08/03 01:14:16;;;;;;;2.60;2.40;;;;;;;17.11;76.41;101053.52;1717636;83;25673;-61
2022/08/03 01:17:01;;;;;;;6.20;2.80;;;;;;;17.16;76.19;101065.23;1717535;83;25792;-61
2022/08/03 01:19:42;;;;;;;9.33;3.22;;;;;;;17.23;76.15;101066.23;1717836;83;25997;-60
2022/08/03 01:22:59;;;;;;;3.98;2.50;;;;;;;17.27;75.83;101055.86;1717650;83;27562;-61
2022/08/03 01:25:55;;;;;;;8.43;3.20;;;;;;;17.25;75.45;101056.56;1684220;85;25463;-60
2022/08/03 01:28:53;;;;;;;8.08;2.55;;;;;;;17.19;75.42;101056.22;1684389;85;25771;-61
2022/08/03 01:31:28;;;;;;;9.40;2.80;;;;;;;17.16;75.26;101062.52;1684249;85;25878;-61
2022/08/03 01:34:00;;;;;;;7.15;2.50;;;;;;;17.09;75.42;101056.07;1684288;85;25446;-61
2022/08/03 01:36:32;;;;;;;7.42;2.30;;;;;;;17.03;75.62;101057.61;1684205;85;28207;-62
2022/08/03 01:39:03;;;;;;;7.30;2.55;;;;;;;16.98;75.42;101055.92;1684125;85;25962;-61
2022/08/03 01:41:34;;;;;;;5.22;2.08;;;;;;;16.95;75.30;101056.26;1679958;85;25844;-60
2022/08/03 01:44:05;;;;;;;5.65;2.17;;;;;;;16.93;75.27;101057.80;1684522;85;25895;-61
2022/08/03 01:46:34;;;;;;;2.33;1.72;;;;;;;16.90;75.25;101060.81;1689479;84;25807;-61
2022/08/03 01:49:03;;;;;;;7.12;2.45;;;;;;;16.89;75.04;101055.03;1693850;84;27446;-60
2022/08/03 01:51:31;;;;;;;7.08;2.12;;;;;;;16.89;74.99;101063.19;1693305;84;25745;-61
2022/08/03 01:54:01;;;;;;;5.92;2.58;;;;;;;16.90;74.94;101058.93;1693631;84;25797;-61
2022/08/03 01:56:30;;;;;;;6.58;2.17;;;;;;;16.93;74.82;101060.97;1693362;84;25793;-61
2022/08/03 01:59:00;;;;;;;3.35;2.17;;;;;;;16.92;74.84;101066.06;1693746;84;25745;-61
2022/08/03 02:01:30;;;;;;;3.50;2.17;;;;;;;16.90;74.70;101068.97;1693307;84;28503;-61
2022/08/03 02:03:59;;;;;;;8.13;2.35;;;;;;;16.88;74.88;101064.20;1693663;84;25753;-61
2022/08/03 02:06:30;;;;;;;4.28;2.37;;;;;;;16.83;75.05;101065.23;1693472;84;26555;-61
2022/08/03 02:08:59;;;;;;;3.83;2.70;;;;;;;16.81;74.95;101062.67;1717477;83;25933;-61
2022/08/03 02:11:31;;;;;;;9.45;4.12;;;;;;;16.79;75.15;101062.02;1681240;85;25836;-61
2022/08/03 02:14:03;;;;;;;3.37;3.05;;;;;;;16.78;75.22;101057.60;1682859;85;27575;-61
2022/08/03 02:16:33;;;;;;;4.55;2.37;;;;;;;16.74;75.18;101066.60;1682659;85;25785;-61
2022/08/03 02:19:03;;;;;;;5.20;2.80;;;;;;;16.72;75.29;101052.83;1682844;85;25852;-61
2022/08/03 02:21:35;;;;;;;12.15;3.22;;;;;;;16.73;75.16;101054.52;1682779;85;25786;-61
2022/08/03 02:24:04;;;;;;;6.10;2.83;;;;;;;16.73;75.07;101055.39;1669345;85;25829;-61
2022/08/03 02:26:33;;;;;;;9.98;3.22;;;;;;;16.72;75.21;101050.97;1666415;86;28327;-61
2022/08/03 02:29:05;;;;;;;5.53;2.80;;;;;;;16.69;75.44;101051.83;1666336;86;25810;-61
2022/08/03 02:31:35;;;;;;;8.48;3.42;;;;;;;16.66;75.30;101054.37;1666599;85;25725;-61
2022/08/03 02:34:07;;;;;;;5.80;2.62;;;;;;;16.63;75.50;101055.23;1666251;85;25897;-61
2022/08/03 02:36:38;;;;;;;9.07;3.30;;;;;;;16.61;75.40;101049.11;1666695;86;26000;-60
2022/08/03 02:39:12;;;;;;;5.20;2.87;;;;;;;16.59;75.60;101057.41;1666241;86;27496;-61
2022/08/03 02:41:50;;;;;;;5.25;2.75;;;;;;;16.59;75.73;101054.20;1666444;86;25699;-61
2022/08/03 02:44:21;;;;;;;5.50;3.17;;;;;;;16.57;75.88;101057.58;1666213;86;25714;-59
2022/08/03 02:46:52;;;;;;;5.33;3.02;;;;;;;16.57;76.12;101057.58;1666376;86;26615;-61
2022/08/03 02:49:21;;;;;;;8.68;2.67;;;;;;;16.58;75.97;101066.08;1666711;86;25818;-61
2022/08/03 02:51:51;;;;;;;7.65;3.12;;;;;;;16.61;75.93;101062.69;1666663;86;27587;-61
2022/08/03 02:54:22;;;;;;;8.25;2.98;;;;;;;16.65;75.80;101064.03;1666219;85;25778;-60
2022/08/03 02:56:50;;;;;;;4.72;3.02;;;;;;;16.69;75.59;101067.60;1670091;85;25735;-60
2022/08/03 02:59:19;;;;;;;7.47;2.50;;;;;;;16.73;75.64;101059.95;1666638;86;25846;-60
2022/08/03 03:01:47;;;;;;;9.68;2.77;;;;;;;16.74;75.76;101063.02;1666448;86;25744;-60
2022/08/03 03:04:15;;;;;;;4.00;2.87;;;;;;;16.71;75.68;101066.09;1666897;86;27485;-60
2022/08/03 03:06:43;;;;;;;5.05;3.47;;;;;;;16.68;75.92;101060.99;1666357;86;26166;-61
2022/08/03 03:09:11;;;;;;;5.80;3.37;;;;;;;16.64;76.16;101059.62;1654404;85;25529;-60
2022/08/03 03:11:40;;;;;;;6.12;3.15;;;;;;;16.61;76.20;101055.90;1683310;84;25771;-60
2022/08/03 03:14:12;;;;;;;7.40;3.12;;;;;;;16.58;76.33;101071.51;1683080;85;25725;-60
2022/08/03 03:16:41;;;;;;;4.62;3.08;;;;;;;16.56;76.61;101071.34;1683011;85;27079;-60
2022/08/03 03:19:13;;;;;;;5.53;3.08;;;;;;;16.52;77.04;101078.98;1682822;85;25787;-60
2022/08/03 03:21:40;;;;;;;6.78;3.17;;;;;;;16.48;77.15;101073.53;1683251;85;25879;-60
2022/08/03 03:24:09;;;;;;;4.22;3.10;;;;;;;16.47;77.23;101074.55;1671483;85;25861;-60
2022/08/03 03:26:36;;;;;;;5.05;2.80;;;;;;;16.47;77.09;101070.99;1661637;86;26124;-60
2022/08/03 03:29:04;;;;;;;14.13;7.00;;;;;;;16.46;77.30;101074.20;1661444;86;27483;-60
2022/08/03 03:31:31;;;;;;;10.35;3.50;;;;;;;16.44;77.40;101077.62;1661194;86;27211;-60
2022/08/03 03:33:59;;;;;;;8.88;3.37;;;;;;;16.40;77.62;101074.39;1678069;85;25822;-60
2022/08/03 03:36:26;;;;;;;4.58;3.40;;;;;;;16.41;77.35;101077.94;1677675;85;25867;-60
2022/08/03 03:38:53;;;;;;;13.48;3.65;;;;;;;16.41;77.66;101082.02;1678183;85;25877;-60
2022/08/03 03:41:20;;;;;;;6.85;3.45;;;;;;;16.42;77.64;101088.63;1677927;85;28383;-60
2022/08/03 03:43:49;;;;;;;5.00;2.87;;;;;;;16.45;77.52;101094.74;1678074;85;25843;-60
2022/08/03 03:46:16;;;;;;;5.25;2.72;;;;;;;16.44;77.39;101093.91;1678228;85;25764;-60
2022/08/03 03:48:44;;;;;;;15.93;3.22;;;;;;;16.46;77.29;101090.49;1661265;86;25795;-60
2022/08/03 03:51:11;;;;;;;10.25;3.47;;;;;;;16.51;77.14;101098.14;1661221;86;27247;-60
2022/08/03 03:53:38;;;;;;;11.57;3.65;;;;;;;16.55;76.81;101096.28;1661268;86;27542;-60
2022/08/03 03:56:05;;;;;;;4.42;3.00;;;;;;;16.61;76.66;101100.72;1661533;86;25968;-60
2022/08/03 03:58:32;;;;;;;6.25;3.17;;;;;;;16.67;76.34;101094.60;1661339;86;25587;-60
2022/08/03 04:01:00;;;;;;;4.67;3.00;;;;;;;16.73;76.07;101097.98;1661483;86;26596;-61
2022/08/03 04:03:27;;;;;;;7.50;3.12;;;;;;;16.78;75.78;101096.99;1661321;86;25721;-61
2022/08/03 04:11:51;;;;;;;7.70;2.70;;;;;;;16.93;74.82;101108.53;1679817;85;25807;-61
2022/08/03 04:14:29;;;;;;;5.63;2.87;;;;;;;16.97;74.50;101109.94;1673308;85;25961;-61
2022/08/03 04:17:04;;;;;;;5.40;2.77;;;;;;;17.02;74.22;101111.62;1672923;85;25879;-63
2022/08/03 04:19:39;;;;;;;6.47;2.50;;;;;;;17.07;74.02;101113.33;1673230;85;27581;-62
2022/08/03 04:22:14;;;;;;;12.13;3.00;;;;;;;17.14;74.01;101114.84;1707551;84;25819;-62
2022/08/03 04:24:52;;;;;;;3.33;2.30;;;;;;;17.22;73.48;101109.39;1668930;84;25791;-62
2022/08/03 04:27:24;;;;;;;7.28;2.70;;;;;;;17.29;72.82;101111.78;1655500;86;25821;-62
2022/08/03 04:29:54;;;;;;;10.03;2.87;;;;;;;17.35;72.58;101112.94;1655556;86;25851;-62
2022/08/03 04:32:24;;;;;;;6.20;2.85;;;;;;;17.43;72.31;101120.23;1655992;86;28215;-61
2022/08/03 04:34:52;;;;;;;9.40;2.77;;;;;;;17.49;71.94;101112.24;1655441;86;25818;-61
2022/08/03 04:37:47;;;;;;;11.57;3.62;;;;;;;17.57;71.68;101115.44;1655774;86;25797;-61
2022/08/03 04:40:20;;;;;;;5.25;3.40;;;;;;;17.64;71.38;101111.52;1655841;86;25890;-62
2022/08/03 04:42:49;;;;;;;7.58;2.47;;;;;;;17.70;70.95;101108.61;1654729;86;25762;-62
2022/08/03 04:45:19;;;;;;;15.88;3.08;;;;;;;17.75;70.55;101115.23;1657019;84;27565;-62
2022/08/03 04:47:47;;;;;;;18.42;3.00;;;;;;;17.80;70.02;101114.17;1688002;85;25894;-62
2022/08/03 04:50:15;;;;;;;8.83;2.75;;;;;;;17.86;69.80;101112.63;1688211;85;25522;-62
2022/08/03 04:52:43;;;;;;;4.37;2.35;;;;;;;17.92;69.61;101111.95;1688110;85;26485;-61
2022/08/03 04:55:10;;;;;;;6.37;2.30;;;;;;;17.96;69.23;101106.50;1688088;85;25872;-62
2022/08/03 04:57:37;;;;;;;3.08;1.77;;;;;;;18.03;68.67;101113.95;1688138;85;27443;-62
2022/08/03 05:00:06;;;;;;;6.37;2.30;;;;;;;18.08;68.71;101119.20;1688035;85;27255;-62
2022/08/03 05:02:33;;;;;;;3.85;2.70;;;;;;;18.13;68.63;101113.22;1688233;83;25833;-62
2022/08/03 05:05:00;;;;;;;8.78;2.72;;;;;;;18.17;68.69;101123.24;1688109;85;25951;-62
2022/08/03 05:07:28;;;;;;;5.87;2.85;;;;;;;18.20;68.71;101117.45;1693560;83;25793;-62
2022/08/03 05:09:56;;;;;;;9.98;2.67;;;;;;;18.26;68.58;101120.81;1714788;83;27564;-62
2022/08/03 05:12:22;;;;;;;5.75;2.52;;;;;;;18.31;68.54;101119.78;1718975;83;25926;-62
2022/08/03 05:14:50;;;;;;;6.42;3.17;;;;;;;18.35;68.07;101129.80;1722445;83;25482;-62
2022/08/03 05:17:18;;;;;;;5.67;2.20;;;;;;;18.37;68.25;101125.03;1722440;83;25843;-62
2022/08/03 05:19:45;;;;;;;3.27;1.90;;;;;;;18.43;68.21;101129.22;1722657;83;25751;-62
2022/08/03 05:22:12;;;;;;;6.47;2.17;;;;;;;18.49;67.99;101121.37;1722440;83;27490;-62
2022/08/03 05:24:39;;;;;;;8.40;2.47;;;;;;;18.55;67.90;101132.41;1674659;83;25793;-61
2022/08/03 05:27:06;;;;;;;4.87;2.15;;;;;;;18.55;67.89;101121.52;1655804;86;25865;-62
2022/08/03 05:29:33;;;;;;;11.25;3.30;;;;;;;18.59;67.73;101125.55;1656175;86;25783;-61
2022/08/03 05:32:00;;;;;;;8.83;2.90;;;;;;;18.63;67.78;101127.41;1656040;86;25456;-61
2022/08/03 05:34:27;;;;;;;19.82;8.38;;;;;;;18.69;67.59;101120.38;1655899;86;28687;-61
2022/08/03 05:36:55;;;;;;;6.75;2.98;;;;;;;18.75;67.53;101122.38;1655864;86;25861;-61
2022/08/03 05:39:22;;;;;;;5.78;2.52;;;;;;;18.85;67.82;101120.78;1655836;86;25831;-61
2022/08/03 05:41:49;;;;;;;16.67;2.33;;;;;;;18.87;67.06;101110.03;1656097;86;25818;-60
2022/08/03 05:44:16;;;;;;;7.50;2.47;;;;;;;18.94;67.23;101115.63;1656111;86;25733;-62
2022/08/03 05:46:42;;;;;;;4.67;2.20;;;;;;;19.02;67.14;101116.92;1656316;85;27660;-63
2022/08/03 05:49:09;;;;;;;4.50;2.20;;;;;;;19.06;66.76;101118.23;1656605;86;25787;-61
2022/08/03 05:51:36;;;;;;;4.87;2.35;;;;;;;19.12;66.57;101124.83;1656908;86;25803;-61
2022/08/03 05:54:04;;;;;;;3.65;2.72;;;;;;;19.16;66.58;101122.59;1656733;86;27927;-62
2022/08/03 05:56:31;;;;;;;8.13;2.52;;;;;;;19.21;66.11;101131.08;1656740;86;25827;-61
2022/08/03 05:58:58;;;;;;;7.80;2.47;;;;;;;19.27;66.17;101123.51;1656820;86;27512;-61
2022/08/03 06:01:24;;;;;;;5.50;1.82;;;;;;;19.34;66.03;101130.44;1656713;86;25723;-60
2022/08/03 06:03:52;;;;;;;5.78;2.08;;;;;;;19.42;66.22;101130.86;1656950;86;25749;-61
2022/08/03 06:06:20;;;;;;;4.03;2.02;;;;;;;19.48;65.87;101127.41;1656673;86;25877;-61
2022/08/03 06:08:47;;;;;;;6.65;2.47;;;;;;;19.57;66.10;101122.69;1693366;83;25783;-61
2022/08/03 06:11:15;;;;;;;8.58;2.22;;;;;;;19.66;66.07;101126.53;1690678;83;27485;-61
2022/08/03 06:13:43;;;;;;;2.17;1.87;;;;;;;19.78;65.99;101125.53;1685201;83;25824;-61
2022/08/03 06:16:10;;;;;;;4.83;2.10;;;;;;;19.91;65.81;101122.67;1683196;85;25749;-61
2022/08/03 06:18:37;;;;;;;4.33;2.33;;;;;;;20.01;65.77;101127.32;1683243;85;26541;-61
2022/08/03 06:21:04;;;;;;;4.65;2.30;;;;;;;20.11;65.41;101113.39;1683133;84;25748;-61
2022/08/03 06:23:31;;;;;;;7.85;2.27;;;;;;;20.20;65.25;101118.20;1683302;84;27475;-61
2022/08/03 06:25:58;;;;;;;2.90;2.00;;;;;;;20.30;65.24;101125.08;1683302;85;25727;-61
2022/08/03 06:28:25;;;;;;;9.45;2.40;;;;;;;20.42;65.07;101120.46;1683259;85;25800;-61
2022/08/03 06:30:52;;;;;;;6.30;2.55;;;;;;;20.48;64.69;101122.44;1683075;85;25853;-61
2022/08/03 06:33:19;;;;;;;5.08;2.15;;;;;;;20.54;64.71;101121.66;1683121;85;25786;-61
2022/08/03 06:35:47;;;;;;;13.35;2.33;;;;;;;20.63;65.16;101127.33;1683240;85;27557;-61
2022/08/03 06:38:13;;;;;;;3.90;2.33;;;;;;;20.70;64.53;101128.77;1683449;85;26039;-61
2022/08/03 06:40:40;;;;;;;5.78;2.17;;;;;;;20.80;64.70;101121.09;1683176;85;25744;-61
2022/08/03 06:43:08;;;;;;;4.22;1.87;;;;;;;20.89;64.00;101114.13;1683244;85;25807;-61
2022/08/03 06:45:35;;;;;;;5.92;1.62;;;;;;;21.01;64.06;101117.20;1683047;84;25803;-61
2022/08/03 06:48:09;;;;;;;7.60;2.08;;;;;;;21.08;63.88;101118.09;1683183;85;27502;-61
2022/08/03 06:50:39;;;;;;;5.65;2.80;;;;;;;21.13;63.88;101122.44;1683172;84;26112;-61
2022/08/03 06:53:08;;;;;;;4.85;1.60;;;;;;;21.21;63.55;101119.55;1683295;85;25829;-63
2022/08/03 06:55:35;;;;;;;5.33;1.75;;;;;;;21.31;63.07;101121.10;1683282;85;25794;-62
2022/08/03 06:58:02;;;;;;;3.75;1.90;;;;;;;21.40;62.45;101134.45;1683264;84;25479;-62
2022/08/03 07:00:29;;;;;;;7.05;2.02;;;;;;;21.48;62.48;101126.59;1683248;85;27496;-62
2022/08/03 07:02:56;;;;;;;10.08;2.58;;;;;;;21.57;62.55;101122.66;1683397;85;26228;-62
2022/08/03 07:05:23;;;;;;;7.08;2.15;;;;;;;21.65;62.15;101127.70;1683325;84;25561;-62
2022/08/03 07:07:50;;;;;;;2.20;1.47;;;;;;;21.79;61.91;101128.59;1683181;84;25721;-62
2022/08/03 07:10:17;;;;;;;3.30;1.62;;;;;;;21.95;61.58;101137.02;1683065;84;25705;-62
2022/08/03 07:12:44;;;;;;;8.78;1.70;;;;;;;21.99;60.95;101135.03;1685875;84;28542;-61
2022/08/03 07:15:11;;;;;;;11.25;2.10;;;;;;;22.05;60.55;101133.38;1692978;84;25822;-61
2022/08/03 07:17:39;;;;;;;5.75;2.58;;;;;;;22.21;60.94;101136.30;1693014;84;25760;-61
2022/08/03 07:20:07;;;;;;;3.00;2.10;;;;;;;22.34;59.97;101134.96;1692858;84;25825;-61
2022/08/03 07:22:35;;;;;;;6.35;2.70;;;;;;;22.61;59.18;101130.95;1693198;84;25498;-61
2022/08/03 07:25:04;;;;;;;3.60;1.72;;;;;;;22.82;59.06;101131.30;1689860;84;27493;-61
2022/08/03 07:27:32;;;;;;;12.40;2.12;;;;;;;23.00;58.64;101133.13;1689858;84;25812;-62
2022/08/03 07:29:59;;;;;;;4.80;2.20;;;;;;;23.13;57.47;101117.52;1689607;84;25746;-61
2022/08/03 07:32:30;;;;;;;7.42;2.62;;;;;;;23.22;57.46;101131.87;1689594;84;25978;-61
2022/08/03 07:34:56;;;;;;;4.78;2.20;;;;;;;23.29;56.69;101134.12;1655796;86;25766;-61
2022/08/03 07:37:23;;;;;;;8.05;2.35;;;;;;;23.31;57.14;101136.64;1655677;86;27470;-61
2022/08/03 07:39:50;;;;;;;2.65;1.70;;;;;;;23.30;57.02;101126.71;1660659;86;25892;-61
2022/08/03 07:42:16;;;;;;;6.97;2.37;;;;;;;23.38;56.89;101122.91;1689719;84;25671;-61
2022/08/03 07:44:43;;;;;;;12.88;2.30;;;;;;;23.43;56.96;101125.86;1689562;84;25813;-61
2022/08/03 07:47:10;;;;;;;9.38;1.87;;;;;;;23.55;56.70;101137.02;1716741;83;25763;-60
2022/08/03 07:49:41;;;;;;;7.55;2.33;;;;;;;23.71;56.20;101130.23;1722358;83;27658;-61
2022/08/03 07:54:53;;;;;;;9.70;1.95;;;;;;;23.84;55.88;101127.98;1722308;83;25790;-61
2022/08/03 07:57:20;;;;;;;4.15;2.40;;;;;;;24.00;54.39;101126.16;1722394;83;27009;-61
2022/08/03 07:59:47;;;;;;;7.58;2.12;;;;;;;24.13;54.09;101121.68;1722546;83;25803;-61
2022/08/03 08:02:14;;;;;;;15.83;2.30;;;;;;;24.23;53.68;101120.69;1722435;83;27481;-61
2022/08/03 08:04:41;;;;;;;10.43;2.20;;;;;;;24.33;53.58;101126.56;1722344;83;25816;-61
2022/08/03 08:07:08;;;;;;;5.80;2.22;;;;;;;24.42;53.41;101128.51;1720198;83;25498;-61
2022/08/03 08:09:35;;;;;;;13.28;2.40;;;;;;;24.48;53.26;101124.04;1684769;84;25804;-61
2022/08/03 08:12:04;;;;;;;5.50;2.22;;;;;;;24.58;53.36;101131.80;1686868;85;25780;-61
2022/08/03 08:14:31;;;;;;;8.80;2.08;;;;;;;24.68;53.04;101122.56;1667069;85;27582;-61
2022/08/03 08:16:58;;;;;;;6.87;3.15;;;;;;;24.85;52.43;101129.76;1673869;85;25738;-61
2022/08/03 08:19:25;;;;;;;11.38;2.00;;;;;;;24.91;52.69;101125.28;1673850;85;25811;-61
2022/08/03 08:21:52;;;;;;;3.40;1.70;;;;;;;25.05;52.25;101119.13;1674153;85;26466;-61
2022/08/03 08:24:18;;;;;;;3.33;1.60;;;;;;;25.14;50.93;101119.16;1678876;85;25664;-62
2022/08/03 08:26:45;;;;;;;8.70;1.55;;;;;;;25.18;50.70;101114.87;1682418;85;27512;-61
2022/08/03 08:29:12;;;;;;;5.22;1.30;;;;;;;25.21;49.71;101114.95;1682203;85;25737;-61
2022/08/03 08:31:39;;;;;;;3.15;1.50;;;;;;;25.19;49.94;101117.94;1682233;85;25744;-62
2022/08/03 08:34:06;;;;;;;12.33;1.95;;;;;;;25.29;49.47;101116.90;1682808;85;26382;-62
2022/08/03 08:36:35;;;;;;;4.70;1.87;;;;;;;25.32;50.16;101118.35;1682543;85;25785;-61
2022/08/03 08:39:02;;;;;;;2.60;1.50;;;;;;;25.40;49.27;101118.64;1682062;85;27695;-61
2022/08/03 08:41:32;;;;;;;7.60;1.87;;;;;;;25.37;49.81;101123.17;1682332;85;25530;-62
2022/08/03 08:43:58;;;;;;;3.40;1.70;;;;;;;25.45;50.02;101124.30;1682202;85;25790;-61
2022/08/03 08:46:25;;;;;;;7.70;2.25;;;;;;;25.62;49.73;101127.31;1685185;85;25812;-62
2022/08/03 08:48:54;;;;;;;4.62;2.08;;;;;;;25.80;48.88;101119.58;1686303;84;25769;-62
2022/08/03 08:51:25;;;;;;;2.45;1.52;;;;;;;25.90;48.53;101121.81;1683012;83;28310;-61
2022/08/03 08:53:53;;;;;;;6.17;2.10;;;;;;;26.07;49.17;101124.25;1682949;84;25765;-61
2022/08/03 08:56:24;;;;;;;7.62;1.90;;;;;;;26.23;48.18;101126.09;1683182;84;25861;-61
2022/08/03 08:58:56;;;;;;;3.52;2.83;;;;;;;26.38;47.93;101126.51;1683250;84;25735;-61
2022/08/03 09:01:23;;;;;;;3.60;1.80;;;;;;;26.47;46.86;101137.21;1683416;85;25742;-61
2022/08/03 09:03:52;;;;;;;8.05;1.95;;;;;;;26.44;46.34;101128.05;1683071;85;27482;-61
2022/08/03 09:06:22;;;;;;;4.97;2.20;;;;;;;26.48;46.62;101128.72;1682777;85;25802;-61
2022/08/03 09:08:49;;;;;;;5.10;2.20;;;;;;;26.45;46.99;101129.18;1657445;85;25706;-61
2022/08/03 09:11:22;;;;;;;2.77;1.40;;;;;;;26.50;46.61;101126.55;1645116;87;25953;-60
2022/08/03 09:13:50;;;;;;;8.75;1.85;;;;;;;26.58;45.98;101130.91;1651765;86;25976;-61
2022/08/03 09:16:22;;;;;;;5.83;2.55;;;;;;;26.81;45.99;101124.64;1642347;87;27507;-61
2022/08/03 09:18:54;;;;;;;6.28;2.10;;;;;;;27.03;45.75;101130.97;1646277;86;25796;-61
2022/08/03 09:21:25;;;;;;;4.97;2.00;;;;;;;27.30;45.54;101124.99;1655278;86;25785;-61
2022/08/03 09:23:55;;;;;;;9.00;1.75;;;;;;;27.67;44.39;101121.17;1655967;86;26027;-61
2022/08/03 09:26:30;;;;;;;6.50;1.80;;;;;;;27.95;44.60;101117.63;1656253;86;25841;-61
2022/08/03 09:29:09;;;;;;;6.47;1.90;;;;;;;28.12;44.17;101116.36;1656829;86;27452;-61
2022/08/03 09:31:40;;;;;;;4.20;2.05;;;;;;;28.30;43.21;101120.84;1656320;86;25935;-61
2022/08/03 09:34:11;;;;;;;6.67;2.00;;;;;;;28.60;42.25;101123.91;1679414;84;25791;-61
2022/08/03 09:36:48;;;;;;;6.95;1.70;;;;;;;28.94;41.54;101117.05;1692404;84;25882;-61
2022/08/03 09:39:21;;;;;;;5.17;1.80;;;;;;;29.07;41.18;101118.64;1692482;84;25754;-61
2022/08/03 09:42:09;;;;;;;6.47;1.70;;;;;;;29.37;40.40;101107.78;1692367;84;28361;-61
2022/08/03 09:44:41;;;;;;;7.75;1.72;;;;;;;29.55;39.48;101106.64;1692453;84;25754;-61
2022/08/03 09:47:09;;;;;;;7.17;1.55;;;;;;;29.52;39.05;101103.02;1692689;84;25959;-61
2022/08/03 09:49:40;;;;;;;7.90;1.65;;;;;;;29.18;39.58;101106.64;1692768;84;25838;-61
2022/08/03 09:52:21;;;;;;;8.03;1.67;;;;;;;29.58;39.63;101108.91;1692682;84;25967;-61
2022/08/03 09:54:53;;;;;;;3.62;1.50;;;;;;;29.59;39.64;101110.59;1692978;84;27878;-61
2022/08/03 09:57:25;;;;;;;11.95;1.77;;;;;;;29.83;38.56;101104.80;1692746;84;25839;-61
2022/08/03 09:59:57;;;;;;;3.25;1.35;;;;;;;30.13;37.95;101097.98;1692993;84;25683;-63
2022/08/03 10:02:26;;;;;;;8.45;1.52;;;;;;;30.19;38.19;101103.87;1693209;84;25960;-61
2022/08/03 10:04:53;;;;;;;5.78;1.30;;;;;;;30.63;36.83;101109.91;1693086;84;25507;-61
2022/08/03 10:07:23;;;;;;;4.37;1.70;;;;;;;30.85;36.92;101100.64;1688397;84;27475;-61
2022/08/03 10:10:00;;;;;;;7.05;1.57;;;;;;;30.86;36.05;101105.09;1662976;85;26209;-61
2022/08/03 10:12:28;;;;;;;8.33;1.77;;;;;;;30.31;37.07;101115.37;1663001;85;25672;-61
2022/08/03 10:14:55;;;;;;;4.20;1.40;;;;;;;29.88;36.94;101113.20;1659795;86;26749;-62
2022/08/03 10:17:24;;;;;;;10.13;1.60;;;;;;;29.45;37.46;101107.34;1647463;86;25724;-61
2022/08/03 10:19:51;;;;;;;3.00;1.10;;;;;;;29.51;37.86;101097.17;1644469;87;27538;-61
2022/08/03 10:22:25;;;;;;;7.97;1.45;;;;;;;29.64;37.75;101112.59;1644082;87;25799;-61
2022/08/03 10:25:03;;;;;;;6.97;1.52;;;;;;;30.26;36.93;101105.88;1667601;85;25791;-61
2022/08/03 10:27:41;;;;;;;9.08;1.40;;;;;;;30.31;35.99;101108.44;1672712;85;25873;-61
2022/08/03 10:30:11;;;;;;;9.18;1.40;;;;;;;30.13;35.53;101100.19;1673025;85;25813;-61
2022/08/03 10:32:49;;;;;;;15.85;2.33;;;;;;;30.62;36.08;101097.69;1673256;85;27561;-62
2022/08/03 10:35:20;;;;;;;4.42;2.12;;;;;;;31.41;35.24;101107.21;1673009;85;25832;-62
2022/08/03 10:37:57;;;;;;;2.67;1.25;;;;;;;31.63;34.58;101100.64;1672908;85;25768;-62
2022/08/03 10:40:31;;;;;;;9.68;1.65;;;;;;;31.64;35.04;101090.66;1673130;85;25812;-61
2022/08/03 10:43:12;;;;;;;8.90;1.45;;;;;;;31.73;33.62;101085.43;1672521;85;26522;-61
2022/08/03 10:45:41;;;;;;;7.58;1.20;;;;;;;31.32;34.52;101094.92;1665922;85;27621;-62
2022/08/03 10:48:09;;;;;;;6.85;1.15;;;;;;;31.06;34.73;101077.48;1644432;86;26038;-62
2022/08/03 10:50:37;;;;;;;9.30;2.35;;;;;;;31.09;34.85;101081.67;1644794;86;25511;-62
2022/08/03 10:53:06;;;;;;;5.35;2.02;;;;;;;30.81;35.38;101086.45;1644030;86;25786;-61
2022/08/03 10:58:48;;;;;;;9.25;1.80;;;;;;;31.86;34.95;101085.48;1644322;87;27492;-61
2022/08/03 11:01:17;;;;;;;8.18;1.45;;;;;;;31.87;34.48;101070.47;1644635;87;25775;-63
2022/08/03 11:03:58;;;;;;;5.90;2.35;;;;;;;32.14;33.23;101075.83;1643957;86;25829;-62
2022/08/03 11:06:26;;;;;;;2.33;1.30;;;;;;;31.62;33.63;101081.75;1644401;87;25806;-63
2022/08/03 11:09:15;;;;;;;4.45;1.35;;;;;;;31.84;33.59;101071.00;1644379;85;25618;-63
2022/08/03 11:11:46;;;;;;;7.78;1.20;;;;;;;31.66;33.46;101066.17;1644567;86;28119;-63
2022/08/03 11:14:20;;;;;;;9.08;1.57;;;;;;;31.24;33.88;101077.37;1646691;86;25839;-63
2022/08/03 11:16:52;;;;;;;6.33;1.35;;;;;;;30.73;34.88;101073.06;1649489;86;25772;-63
2022/08/03 11:19:23;;;;;;;5.03;1.80;;;;;;;30.32;35.64;101067.93;1649011;86;25920;-63
2022/08/03 11:21:53;;;;;;;5.62;1.20;;;;;;;30.06;36.18;101072.39;1651753;86;25776;-62
2022/08/03 11:24:45;;;;;;;5.42;1.37;;;;;;;30.01;36.43;101069.53;1669355;85;27522;-62
2022/08/03 11:27:27;;;;;;;10.80;1.70;;;;;;;30.14;36.51;101070.53;1683345;85;25910;-62
2022/08/03 11:30:13;;;;;;;7.17;1.60;;;;;;;30.13;36.41;101070.23;1683188;85;25783;-62
2022/08/03 11:32:46;;;;;;;5.05;1.45;;;;;;;30.16;36.18;101062.80;1682983;85;26977;-62
2022/08/03 11:35:24;;;;;;;2.62;1.47;;;;;;;29.97;36.53;101064.53;1683167;85;25791;-63
2022/08/03 11:38:01;;;;;;;7.28;1.67;;;;;;;29.69;36.55;101059.16;1683333;85;28378;-62
2022/08/03 11:40:44;;;;;;;5.42;1.62;;;;;;;29.28;37.29;101057.45;1683180;85;25783;-62
2022/08/03 11:43:33;;;;;;;6.10;1.90;;;;;;;28.99;37.65;101049.30;1683351;85;25586;-62
2022/08/03 11:46:07;;;;;;;7.37;1.67;;;;;;;28.62;38.70;101058.61;1683387;84;26439;-62
2022/08/03 11:48:37;;;;;;;4.53;1.87;;;;;;;28.29;39.71;101063.02;1683227;85;26021;-62
2022/08/03 11:51:09;;;;;;;2.62;1.30;;;;;;;28.08;39.94;101053.79;1683141;85;27513;-62